createdAt,value
2019-02-27T00:01:04.552Z,28.33
2019-02-27T00:03:33.957Z,30.50
2019-02-27T00:06:04.690Z,30.83
2019-02-27T00:08:34.298Z,30.83
2019-02-27T00:11:03.903Z,31.33
2019-02-27T00:13:33.422Z,32.23
2019-02-27T00:16:03.320Z,33.53
2019-02-27T00:18:33.040Z,28.83
2019-02-27T00:21:02.342Z,37.53
2019-02-27T00:23:31.643Z,31.17
2019-02-27T00:26:01.658Z,29.47
2019-02-27T00:28:31.153Z,27.47
2019-02-27T00:31:02.429Z,33.43
2019-02-27T00:33:31.498Z,38.63
2019-02-27T00:36:00.712Z,33.07
2019-02-27T00:38:30.209Z,34.57
2019-02-27T00:40:59.718Z,30.00
2019-02-27T00:43:29.081Z,28.03
2019-02-27T00:45:58.638Z,34.87
2019-02-27T00:48:27.835Z,30.93
2019-02-27T00:50:57.135Z,29.40
2019-02-27T00:53:26.333Z,32.43
2019-02-27T00:55:55.634Z,30.67
2019-02-27T00:58:27.041Z,29.97
2019-02-27T01:00:56.169Z,30.97
2019-02-27T01:03:26.312Z,35.03
2019-02-27T01:05:56.412Z,30.87
2019-02-27T01:08:27.650Z,32.97
2019-02-27T01:10:56.898Z,32.83
2019-02-27T01:13:28.943Z,32.03
2019-02-27T01:15:57.532Z,30.20
2019-02-27T01:18:30.379Z,35.90
2019-02-27T01:20:58.375Z,37.53
2019-02-27T01:23:27.681Z,32.07
2019-02-27T01:25:57.202Z,32.27
2019-02-27T01:28:26.679Z,32.40
2019-02-27T01:30:56.203Z,30.37
2019-02-27T01:33:25.693Z,32.57
2019-02-27T01:35:55.308Z,33.00
2019-02-27T01:38:24.922Z,30.63
2019-02-27T01:40:54.328Z,30.60
2019-02-27T01:43:23.527Z,28.37
2019-02-27T01:45:54.301Z,35.00
2019-02-27T01:48:23.666Z,30.93
2019-02-27T01:50:55.301Z,32.40
2019-02-27T01:53:24.003Z,31.93
2019-02-27T01:55:56.201Z,31.97
2019-02-27T01:58:24.662Z,33.30
2019-02-27T02:00:56.238Z,29.23
2019-02-27T02:03:25.118Z,35.03
2019-02-27T02:05:54.388Z,31.87
2019-02-27T02:08:23.596Z,28.70
2019-02-27T02:10:55.396Z,28.83
2019-02-27T02:13:27.846Z,30.60
2019-02-27T02:16:27.556Z,28.17
2019-02-27T02:19:11.604Z,30.63
2019-02-27T02:21:49.918Z,34.53
2019-02-27T02:24:48.197Z,30.70
2019-02-27T02:27:29.803Z,30.87
2019-02-27T02:30:29.374Z,28.27
2019-02-27T02:33:09.735Z,31.97
2019-02-27T02:35:50.672Z,30.53
2019-02-27T02:38:44.503Z,30.87
2019-02-27T02:41:48.066Z,31.80
2019-02-27T02:44:33.604Z,34.67
2019-02-27T02:47:28.907Z,28.83
2019-02-27T02:50:28.542Z,29.10
2019-02-27T02:53:00.999Z,28.57
2019-02-27T02:55:59.270Z,30.70
2019-02-27T02:58:56.324Z,30.53
2019-02-27T03:01:28.704Z,28.63
2019-02-27T03:04:33.337Z,26.20
2019-02-27T03:07:25.473Z,26.80
2019-02-27T03:10:24.876Z,30.80
2019-02-27T03:12:57.480Z,31.57
2019-02-27T03:15:37.345Z,28.60
2019-02-27T03:18:30.398Z,27.30
2019-02-27T03:21:28.728Z,30.20
2019-02-27T03:24:20.376Z,31.63
2019-02-27T03:27:30.627Z,29.37
2019-02-27T03:30:19.096Z,27.60
2019-02-27T03:32:54.536Z,29.23
2019-02-27T03:35:53.014Z,27.77
2019-02-27T03:39:00.116Z,28.33
2019-02-27T03:41:32.892Z,28.23
2019-02-27T03:44:20.243Z,28.83
2019-02-27T03:46:50.431Z,36.23
2019-02-27T03:49:48.924Z,29.13
2019-02-27T03:52:56.627Z,33.50
2019-02-27T03:55:52.767Z,28.40
2019-02-27T03:58:51.343Z,27.93
2019-02-27T04:01:30.480Z,28.87
2019-02-27T04:04:33.673Z,31.20
2019-02-27T04:07:31.803Z,31.20
2019-02-27T04:10:01.361Z,28.60
2019-02-27T04:12:30.557Z,41.53
2019-02-27T04:14:59.759Z,30.30
2019-02-27T04:17:28.345Z,33.93
2019-02-27T04:19:58.051Z,26.90
2019-02-27T04:22:27.649Z,30.70
2019-02-27T04:24:57.678Z,28.40
2019-02-27T04:27:27.388Z,27.33
2019-02-27T04:29:56.888Z,28.83
2019-02-27T04:32:26.199Z,28.70
2019-02-27T04:34:55.689Z,30.23
2019-02-27T04:37:25.203Z,26.60
2019-02-27T04:39:54.707Z,25.17
2019-02-27T04:42:25.748Z,27.03
2019-02-27T04:44:55.074Z,27.03
2019-02-27T04:47:28.710Z,26.47
2019-02-27T04:49:55.494Z,27.63
2019-02-27T04:52:25.310Z,26.93
2019-02-27T04:54:54.817Z,30.37
2019-02-27T04:57:24.130Z,25.53
2019-02-27T04:59:53.624Z,28.23
2019-02-27T05:02:23.144Z,26.10
2019-02-27T05:04:52.339Z,27.63
2019-02-27T05:07:21.830Z,32.80
2019-02-27T05:09:51.341Z,27.67
2019-02-27T05:12:20.652Z,27.13
2019-02-27T05:14:49.957Z,27.10
2019-02-27T05:17:21.453Z,26.00
2019-02-27T05:19:52.125Z,29.07
2019-02-27T05:22:26.412Z,29.53
2019-02-27T05:24:52.862Z,28.07
2019-02-27T05:27:22.387Z,32.43
2019-02-27T05:30:05.117Z,30.67
2019-02-27T05:32:34.726Z,31.43
2019-02-27T05:35:04.132Z,29.00
2019-02-27T05:37:36.054Z,28.43
2019-02-27T05:40:07.196Z,31.80
2019-02-27T05:42:39.116Z,31.73
2019-02-27T05:45:10.653Z,29.43
2019-02-27T05:47:44.686Z,31.40
2019-02-27T05:50:12.421Z,31.27
2019-02-27T05:52:41.734Z,29.73
2019-02-27T05:55:11.331Z,31.53
2019-02-27T05:57:40.844Z,30.73
2019-02-27T06:00:18.334Z,32.00
2019-02-27T06:02:47.646Z,29.97
2019-02-27T06:05:17.144Z,26.87
2019-02-27T06:07:46.957Z,30.03
2019-02-27T06:10:20.196Z,31.80
2019-02-27T06:12:49.244Z,32.60
2019-02-27T06:15:18.963Z,28.23
2019-02-27T06:17:49.063Z,27.17
2019-02-27T06:20:19.206Z,34.03
2019-02-27T06:22:48.734Z,27.43
2019-02-27T06:25:23.424Z,26.40
2019-02-27T06:27:50.378Z,34.20
2019-02-27T06:30:22.958Z,33.00
2019-02-27T06:32:52.266Z,30.77
2019-02-27T06:35:21.659Z,24.97
2019-02-27T06:37:51.457Z,30.20
2019-02-27T06:40:20.993Z,35.03
2019-02-27T06:42:53.480Z,29.47
2019-02-27T06:45:21.888Z,26.97
2019-02-27T06:47:51.086Z,26.03
2019-02-27T06:50:25.227Z,31.83
2019-02-27T06:52:51.492Z,32.40
2019-02-27T06:55:20.896Z,35.97
2019-02-27T06:57:50.392Z,32.23
2019-02-27T07:00:24.062Z,24.93
2019-02-27T07:02:55.464Z,26.83
2019-02-27T07:05:26.080Z,25.93
2019-02-27T07:07:55.390Z,29.57
2019-02-27T07:10:24.694Z,26.87
2019-02-27T07:12:54.752Z,33.67
2019-02-27T07:15:26.540Z,29.40
2019-02-27T07:17:56.375Z,29.47
2019-02-27T07:20:25.692Z,26.60
2019-02-27T07:22:55.181Z,26.33
2019-02-27T07:25:24.697Z,25.17
2019-02-27T07:27:54.194Z,24.30
2019-02-27T07:30:23.911Z,30.77
2019-02-27T07:32:53.603Z,21.73
2019-02-27T07:35:25.572Z,23.87
2019-02-27T07:37:54.078Z,23.67
2019-02-27T07:40:23.566Z,23.83
2019-02-27T07:42:53.140Z,23.93
2019-02-27T07:45:23.685Z,24.27
2019-02-27T07:47:53.211Z,25.40
2019-02-27T07:50:22.631Z,22.77
2019-02-27T07:52:52.246Z,20.63
2019-02-27T07:55:23.644Z,23.70
2019-02-27T07:57:53.088Z,21.33
2019-02-27T08:00:23.422Z,23.60
2019-02-27T08:02:52.725Z,20.13
2019-02-27T08:05:22.221Z,24.13
2019-02-27T08:07:51.633Z,21.93
2019-02-27T08:10:22.383Z,21.57
2019-02-27T08:12:55.586Z,22.83
2019-02-27T08:15:23.122Z,21.77
2019-02-27T08:17:57.490Z,20.60
2019-02-27T08:20:23.713Z,21.30
2019-02-27T08:22:53.543Z,18.43
2019-02-27T08:25:23.504Z,23.27
2019-02-27T08:27:54.217Z,22.20
2019-02-27T08:30:28.351Z,22.97
2019-02-27T08:32:57.879Z,20.67
2019-02-27T08:35:27.260Z,21.17
2019-02-27T08:38:02.552Z,21.27
2019-02-27T08:40:28.183Z,18.63
2019-02-27T08:42:57.466Z,20.13
2019-02-27T08:45:27.669Z,18.83
2019-02-27T08:47:57.202Z,21.37
2019-02-27T08:50:29.273Z,23.03
2019-02-27T08:52:57.939Z,21.73
2019-02-27T08:55:27.309Z,19.23
2019-02-27T08:57:57.176Z,20.97
2019-02-27T09:00:34.193Z,23.60
2019-02-27T09:03:03.751Z,23.93
2019-02-27T09:05:33.306Z,19.57
2019-02-27T09:08:03.327Z,22.07
2019-02-27T09:10:32.833Z,19.40
2019-02-27T09:13:05.873Z,18.13
2019-02-27T09:15:33.272Z,20.90
2019-02-27T09:18:02.589Z,21.67
2019-02-27T09:20:32.082Z,21.97
2019-02-27T09:23:01.589Z,20.07
2019-02-27T09:25:30.801Z,17.83
2019-02-27T09:28:00.000Z,21.33
2019-02-27T09:30:30.227Z,20.27
2019-02-27T09:33:00.035Z,17.83
2019-02-27T09:35:32.556Z,18.07
2019-02-27T09:38:00.483Z,16.17
2019-02-27T09:40:30.328Z,17.17
2019-02-27T09:42:59.701Z,18.67
2019-02-27T09:45:35.009Z,18.30
2019-02-27T09:48:05.472Z,20.13
2019-02-27T09:50:37.231Z,18.07
2019-02-27T09:53:06.932Z,20.20
2019-02-27T09:55:36.452Z,16.03
2019-02-27T09:58:11.036Z,18.73
2019-02-27T10:00:50.206Z,18.40
2019-02-27T10:03:21.443Z,19.87
2019-02-27T10:05:51.171Z,19.43
2019-02-27T10:08:20.770Z,23.37
2019-02-27T10:10:50.274Z,19.17
2019-02-27T10:13:19.587Z,20.57
2019-02-27T10:15:49.073Z,17.17
2019-02-27T10:18:21.866Z,18.20
2019-02-27T10:20:49.637Z,15.10
2019-02-27T10:23:18.938Z,17.90
2019-02-27T10:25:49.871Z,20.03
2019-02-27T10:28:19.274Z,18.20
2019-02-27T10:30:50.137Z,16.87
2019-02-27T10:33:20.139Z,21.57
2019-02-27T10:35:49.544Z,20.13
2019-02-27T10:38:19.036Z,18.20
2019-02-27T10:40:48.347Z,23.83
2019-02-27T10:43:17.551Z,20.57
2019-02-27T10:45:49.269Z,18.87
2019-02-27T10:48:18.098Z,19.97
2019-02-27T10:50:47.599Z,19.53
2019-02-27T10:53:17.035Z,23.77
2019-02-27T10:55:48.926Z,21.27
2019-02-27T10:58:17.552Z,23.63
2019-02-27T11:00:47.743Z,23.17
2019-02-27T11:03:17.279Z,22.57
2019-02-27T11:05:46.588Z,22.90
2019-02-27T11:08:17.021Z,23.27
2019-02-27T11:10:46.408Z,24.30
2019-02-27T11:13:15.721Z,21.60
2019-02-27T11:15:45.679Z,24.50
2019-02-27T11:18:14.836Z,23.13
2019-02-27T11:20:45.574Z,21.93
2019-02-27T11:23:14.975Z,23.43
2019-02-27T11:25:44.378Z,24.57
2019-02-27T11:28:13.691Z,22.13
2019-02-27T11:30:43.702Z,20.63
2019-02-27T11:33:24.791Z,24.70
2019-02-27T11:35:45.952Z,24.13
2019-02-27T11:38:15.390Z,22.97
2019-02-27T11:41:03.216Z,25.80
2019-02-27T11:43:54.646Z,20.43
2019-02-27T11:46:24.062Z,22.20
2019-02-27T11:48:53.351Z,21.93
2019-02-27T11:51:23.474Z,26.00
2019-02-27T11:53:52.985Z,23.93
2019-02-27T11:56:22.490Z,20.57
2019-02-27T11:58:51.788Z,19.67
2019-02-27T12:01:22.104Z,20.57
2019-02-27T12:03:52.132Z,17.93
2019-02-27T12:06:21.643Z,21.90
2019-02-27T12:08:52.775Z,19.47
2019-02-27T12:11:22.070Z,19.37
2019-02-27T12:13:51.584Z,19.00
2019-02-27T12:16:21.092Z,19.47
2019-02-27T12:18:50.397Z,18.23
2019-02-27T12:21:19.892Z,19.23
2019-02-27T12:23:49.511Z,18.33
2019-02-27T12:26:18.725Z,16.33
2019-02-27T12:28:52.482Z,20.27
2019-02-27T12:31:19.475Z,19.27
2019-02-27T12:33:49.070Z,16.90
2019-02-27T12:36:18.709Z,14.83
2019-02-27T12:38:48.807Z,17.77
2019-02-27T12:41:18.416Z,17.60
2019-02-27T12:43:52.130Z,18.00
2019-02-27T12:46:19.068Z,17.07
2019-02-27T12:48:48.559Z,19.23
2019-02-27T12:51:17.970Z,11.97
2019-02-27T12:53:47.570Z,18.70
2019-02-27T12:56:16.904Z,11.23
2019-02-27T12:58:46.386Z,15.33
2019-02-27T13:01:16.926Z,15.27
2019-02-27T13:03:46.525Z,18.20
2019-02-27T13:06:15.949Z,12.33
2019-02-27T13:08:45.439Z,18.07
2019-02-27T13:11:15.549Z,15.07
2019-02-27T13:13:46.606Z,20.23
2019-02-27T13:16:15.904Z,17.73
2019-02-27T13:18:46.488Z,17.03
2019-02-27T13:21:20.212Z,20.10
2019-02-27T13:23:47.435Z,18.60
2019-02-27T13:26:16.797Z,20.23
2019-02-27T13:28:48.820Z,19.33
2019-02-27T13:31:17.754Z,17.93
2019-02-27T13:33:47.253Z,18.83
2019-02-27T13:36:16.757Z,20.73
2019-02-27T13:38:46.197Z,20.23
2019-02-27T13:41:15.568Z,18.40
2019-02-27T13:43:44.979Z,16.97
2019-02-27T13:46:14.389Z,17.27
2019-02-27T13:48:43.790Z,14.47
2019-02-27T13:51:13.308Z,21.87
2019-02-27T13:53:44.785Z,21.57
2019-02-27T13:56:16.073Z,11.83
2019-02-27T13:58:44.985Z,15.53
2019-02-27T14:01:33.641Z,14.90
2019-02-27T14:04:03.139Z,15.20
2019-02-27T14:06:32.348Z,13.53
2019-02-27T14:09:04.417Z,16.13
2019-02-27T14:11:32.895Z,13.17
2019-02-27T14:14:02.402Z,15.43
2019-02-27T14:16:34.492Z,14.00
2019-02-27T14:19:02.950Z,14.63
2019-02-27T14:21:35.273Z,14.57
2019-02-27T14:24:03.191Z,12.87
2019-02-27T14:26:32.392Z,12.93
2019-02-27T14:29:04.047Z,13.63
2019-02-27T14:31:33.043Z,12.13
2019-02-27T14:34:02.758Z,12.33
2019-02-27T14:36:32.252Z,11.40
2019-02-27T14:39:02.189Z,15.50
2019-02-27T14:41:31.401Z,16.77
2019-02-27T14:44:00.884Z,14.90
2019-02-27T14:46:30.384Z,14.33
2019-02-27T14:48:59.792Z,12.53
2019-02-27T14:51:29.289Z,11.83
2019-02-27T14:53:59.318Z,10.83
2019-02-27T14:56:28.915Z,13.57
2019-02-27T14:58:58.427Z,12.50
2019-02-27T15:01:27.741Z,11.33
2019-02-27T15:04:00.390Z,13.00
2019-02-27T15:06:27.872Z,14.10
2019-02-27T15:08:58.129Z,14.77
2019-02-27T15:11:28.014Z,10.37
2019-02-27T15:13:59.671Z,10.13
2019-02-27T15:16:28.253Z,9.20
2019-02-27T15:18:57.757Z,9.97
2019-02-27T15:21:27.273Z,14.33
2019-02-27T15:23:58.093Z,11.63
2019-02-27T15:26:29.234Z,10.80
2019-02-27T15:28:58.659Z,8.57
2019-02-27T15:31:28.148Z,8.33
2019-02-27T15:33:57.750Z,8.17
2019-02-27T15:36:29.707Z,11.93
2019-02-27T15:38:58.201Z,10.30
2019-02-27T15:41:27.617Z,7.83
2019-02-27T15:44:00.294Z,8.67
2019-02-27T15:46:28.077Z,6.70
2019-02-27T15:48:59.840Z,9.17
2019-02-27T15:51:32.325Z,6.27
2019-02-27T15:54:01.297Z,8.33
2019-02-27T15:56:30.784Z,9.07
2019-02-27T15:59:05.058Z,8.23
2019-02-27T16:01:33.033Z,10.03
2019-02-27T16:04:01.970Z,8.30
2019-02-27T16:06:31.279Z,7.33
2019-02-27T16:09:00.879Z,6.97
2019-02-27T16:11:30.389Z,8.90
2019-02-27T16:14:09.256Z,8.93
2019-02-27T16:16:37.082Z,7.57
2019-02-27T16:19:08.045Z,8.13
2019-02-27T16:21:37.638Z,8.43
2019-02-27T16:24:09.529Z,9.07
2019-02-27T16:26:37.780Z,9.37
2019-02-27T16:29:07.272Z,11.97
2019-02-27T16:31:37.103Z,8.30
2019-02-27T16:34:08.023Z,8.33
2019-02-27T16:36:37.538Z,11.73
2019-02-27T16:39:08.331Z,11.23
2019-02-27T16:41:37.580Z,15.90
2019-02-27T16:44:07.123Z,13.33
2019-02-27T16:46:43.477Z,11.60
2019-02-27T16:49:10.167Z,8.87
2019-02-27T16:51:39.389Z,12.47
2019-02-27T16:54:08.593Z,14.00
2019-02-27T16:56:37.791Z,13.60
2019-02-27T16:59:09.679Z,14.53
2019-02-27T17:01:39.242Z,15.17
2019-02-27T17:04:08.664Z,14.73
2019-02-27T17:06:38.181Z,14.23
2019-02-27T17:09:10.131Z,14.63
2019-02-27T17:11:41.592Z,19.10
2019-02-27T17:14:10.888Z,13.80
2019-02-27T17:16:44.305Z,10.33
2019-02-27T17:19:12.770Z,11.57
2019-02-27T17:21:42.261Z,15.23
2019-02-27T17:24:11.576Z,12.57
2019-02-27T17:26:40.848Z,14.30
2019-02-27T17:29:10.092Z,15.30
2019-02-27T17:31:48.765Z,14.23
2019-02-27T17:34:13.483Z,14.20
2019-02-27T17:36:40.972Z,20.30
2019-02-27T17:39:10.428Z,17.07
2019-02-27T17:41:41.820Z,13.17
2019-02-27T17:44:11.023Z,18.10
2019-02-27T17:46:40.547Z,14.73
2019-02-27T17:49:09.780Z,16.40
2019-02-27T17:51:40.499Z,12.20
2019-02-27T17:54:09.830Z,14.90
2019-02-27T17:56:39.006Z,18.17
2019-02-27T17:59:08.604Z,14.70
2019-02-27T18:01:39.123Z,13.10
2019-02-27T18:04:08.918Z,15.97
2019-02-27T18:06:38.136Z,16.77
2019-02-27T18:09:08.956Z,16.30
2019-02-27T18:11:38.151Z,20.83
2019-02-27T18:14:09.995Z,20.90
2019-02-27T18:16:38.191Z,20.83
2019-02-27T18:19:07.678Z,17.83
2019-02-27T18:21:39.048Z,18.10
2019-02-27T18:24:08.514Z,21.57
2019-02-27T18:26:37.923Z,16.60
2019-02-27T18:29:13.770Z,14.20
2019-02-27T18:31:43.442Z,11.77
2019-02-27T18:34:14.305Z,12.87
2019-02-27T18:36:46.529Z,13.47
2019-02-27T18:39:16.501Z,15.27
2019-02-27T18:41:46.477Z,17.90
2019-02-27T18:44:15.823Z,12.07
2019-02-27T18:46:45.444Z,14.37
2019-02-27T18:49:15.217Z,12.90
2019-02-27T18:51:46.926Z,12.17
2019-02-27T18:54:21.746Z,13.20
2019-02-27T18:56:49.468Z,14.23
2019-02-27T18:59:18.692Z,12.93
2019-02-27T19:01:48.517Z,10.47
2019-02-27T19:04:18.362Z,14.43
2019-02-27T19:06:47.635Z,13.30
2019-02-27T19:09:37.812Z,11.93
2019-02-27T19:12:06.981Z,13.73
2019-02-27T19:14:36.698Z,16.03
2019-02-27T19:17:06.901Z,15.03
2019-02-27T19:19:37.740Z,16.90
2019-02-27T19:22:11.081Z,17.83
2019-02-27T19:24:39.626Z,15.23
2019-02-27T19:27:08.814Z,20.77
2019-02-27T19:29:38.440Z,16.47
2019-02-27T19:32:07.808Z,17.60
2019-02-27T19:34:37.032Z,14.30
2019-02-27T19:37:06.869Z,18.87
2019-02-27T19:39:36.027Z,14.67
2019-02-27T19:42:05.397Z,15.80
2019-02-27T19:44:35.640Z,16.53
2019-02-27T19:47:05.246Z,14.63
2019-02-27T19:49:36.644Z,19.67
2019-02-27T19:52:06.907Z,13.07
2019-02-27T19:54:36.082Z,18.50
2019-02-27T19:57:07.986Z,20.27
2019-02-27T19:59:36.388Z,18.57
2019-02-27T20:02:05.837Z,15.33
2019-02-27T20:04:35.219Z,14.17
2019-02-27T20:07:04.499Z,15.93
2019-02-27T20:09:34.095Z,18.33
2019-02-27T20:12:03.363Z,15.47
2019-02-27T20:14:33.202Z,15.13
2019-02-27T20:17:03.717Z,13.23
2019-02-27T20:19:33.013Z,17.23
2019-02-27T20:22:02.478Z,15.83
2019-02-27T20:24:32.424Z,11.77
2019-02-27T20:27:02.812Z,14.07
2019-02-27T20:29:32.346Z,17.97
2019-02-27T20:32:01.911Z,16.60
2019-02-27T20:34:31.113Z,16.67
2019-02-27T20:37:03.268Z,19.27
2019-02-27T20:39:31.803Z,17.33
2019-02-27T20:42:01.059Z,12.30
2019-02-27T20:44:30.411Z,19.47
2019-02-27T20:46:59.627Z,14.80
2019-02-27T20:49:28.858Z,15.47
2019-02-27T20:51:58.274Z,14.67
2019-02-27T20:54:27.440Z,21.83
2019-02-27T20:56:56.599Z,16.47
2019-02-27T20:59:26.455Z,18.43
2019-02-27T21:01:55.740Z,19.70
2019-02-27T21:04:25.329Z,20.20
2019-02-27T21:06:55.191Z,17.07
2019-02-27T21:09:29.119Z,17.30
2019-02-27T21:12:03.529Z,16.90
2019-02-27T21:14:29.420Z,19.40
2019-02-27T21:16:58.625Z,19.17
2019-02-27T21:19:28.415Z,18.03
2019-02-27T21:21:58.334Z,22.23
2019-02-27T21:24:28.034Z,17.20
2019-02-27T21:26:59.448Z,19.50
2019-02-27T21:29:28.985Z,17.77
2019-02-27T21:31:58.247Z,17.23
2019-02-27T21:34:29.281Z,19.20
2019-02-27T21:36:58.429Z,18.00
2019-02-27T21:39:28.434Z,16.70
2019-02-27T21:41:58.000Z,22.73
2019-02-27T21:44:29.247Z,19.70
2019-02-27T21:46:58.464Z,19.53
2019-02-27T21:49:31.680Z,23.43
2019-02-27T21:51:58.541Z,17.77
2019-02-27T21:54:27.898Z,16.63
2019-02-27T21:56:57.335Z,20.13
2019-02-27T21:59:26.942Z,19.53
2019-02-27T22:01:57.035Z,28.30
2019-02-27T22:04:26.552Z,16.73
2019-02-27T22:06:58.407Z,19.93
2019-02-27T22:09:27.114Z,20.63
2019-02-27T22:11:58.184Z,16.20
2019-02-27T22:14:28.098Z,18.40
2019-02-27T22:16:57.327Z,18.40
2019-02-27T22:19:27.226Z,17.80
2019-02-27T22:21:56.414Z,18.27
2019-02-27T22:24:25.689Z,18.37
2019-02-27T22:26:55.155Z,20.80
2019-02-27T22:29:25.190Z,24.90
2019-02-27T22:31:55.556Z,20.67
2019-02-27T22:34:27.728Z,19.67
2019-02-27T22:36:55.573Z,18.80
2019-02-27T22:39:24.754Z,20.43
2019-02-27T22:41:53.902Z,19.83
2019-02-27T22:44:23.179Z,18.73
2019-02-27T22:46:52.471Z,16.27
2019-02-27T22:49:21.777Z,24.63
2019-02-27T22:51:50.968Z,22.63
2019-02-27T22:54:20.474Z,16.10
2019-02-27T22:56:51.569Z,18.03
2019-02-27T22:59:20.944Z,18.50
2019-02-27T23:01:51.067Z,19.03
2019-02-27T23:04:20.705Z,16.50
2019-02-27T23:06:50.151Z,16.50
2019-02-27T23:09:21.223Z,17.57
2019-02-27T23:11:53.414Z,16.03
2019-02-27T23:14:22.814Z,17.67
2019-02-27T23:16:52.063Z,15.93
2019-02-27T23:19:21.496Z,18.27
2019-02-27T23:21:50.852Z,16.33
2019-02-27T23:24:20.390Z,18.23
2019-02-27T23:26:54.347Z,16.20
2019-02-27T23:29:20.660Z,18.17
2019-02-27T23:31:50.051Z,17.20
2019-02-27T23:34:19.333Z,16.30
2019-02-27T23:36:48.755Z,16.40
2019-02-27T23:39:17.935Z,18.97
2019-02-27T23:41:47.123Z,20.10
2019-02-27T23:44:16.349Z,20.53
2019-02-27T23:46:49.569Z,13.67
2019-02-27T23:49:16.439Z,17.93
2019-02-27T23:51:47.692Z,15.90
2019-02-27T23:54:16.730Z,16.10
2019-02-27T23:56:45.949Z,17.30
2019-02-27T23:59:15.539Z,20.43
